sensor_id;sensor_type;location;lat;lon;timestamp;P1;durP1;ratioP1;P2;durP2;ratioP2
23800;SDS011;12081;48.614;10.226;2022-10-19T00:00:00;13.03;;;7.97;;
23800;SDS011;12081;48.614;10.226;2022-10-19T00:02:44;14.67;;;9.20;;
23800;SDS011;12081;48.614;10.226;2022-10-19T00:05:28;9.73;;;8.30;;
23800;SDS011;12081;48.614;10.226;2022-10-19T00:08:12;11.93;;;8.43;;
23800;SDS011;12081;48.614;10.226;2022-10-19T00:10:56;10.87;;;8.20;;
23800;SDS011;12081;48.614;10.226;2022-10-19T00:13:43;11.03;;;7.37;;
23800;SDS011;12081;48.614;10.226;2022-10-19T00:16:29;12.70;;;7.70;;
23800;SDS011;12081;48.614;10.226;2022-10-19T00:19:15;10.67;;;7.20;;
23800;SDS011;12081;48.614;10.226;2022-10-19T00:22:02;10.03;;;7.13;;
23800;SDS011;12081;48.614;10.226;2022-10-19T00:24:46;15.27;;;7.73;;
23800;SDS011;12081;48.614;10.226;2022-10-19T00:27:30;22.00;;;9.73;;
23800;SDS011;12081;48.614;10.226;2022-10-19T00:30:15;20.97;;;11.77;;
23800;SDS011;12081;48.614;10.226;2022-10-19T00:32:59;22.67;;;12.47;;
23800;SDS011;12081;48.614;10.226;2022-10-19T00:35:44;27.33;;;11.43;;
23800;SDS011;12081;48.614;10.226;2022-10-19T00:38:30;60.00;;;12.40;;
23800;SDS011;12081;48.614;10.226;2022-10-19T00:41:15;26.50;;;11.87;;
23800;SDS011;12081;48.614;10.226;2022-10-19T00:46:50;20.27;;;12.63;;
23800;SDS011;12081;48.614;10.226;2022-10-19T03:53:29;22.63;;;17.67;;
23800;SDS011;12081;48.614;10.226;2022-10-19T03:56:17;21.53;;;17.33;;
23800;SDS011;12081;48.614;10.226;2022-10-19T03:59:12;20.73;;;16.43;;
23800;SDS011;12081;48.614;10.226;2022-10-19T04:01:58;22.43;;;17.57;;
23800;SDS011;12081;48.614;10.226;2022-10-19T04:04:46;20.40;;;16.87;;
23800;SDS011;12081;48.614;10.226;2022-10-19T04:07:30;23.03;;;16.50;;
23800;SDS011;12081;48.614;10.226;2022-10-19T04:10:14;19.30;;;15.53;;
23800;SDS011;12081;48.614;10.226;2022-10-19T04:12:58;21.80;;;16.50;;
23800;SDS011;12081;48.614;10.226;2022-10-19T04:15:42;20.43;;;16.13;;
23800;SDS011;12081;48.614;10.226;2022-10-19T04:18:27;21.63;;;15.47;;
23800;SDS011;12081;48.614;10.226;2022-10-19T04:24:13;19.37;;;15.20;;
23800;SDS011;12081;48.614;10.226;2022-10-19T04:27:00;19.37;;;15.10;;
23800;SDS011;12081;48.614;10.226;2022-10-19T04:29:45;23.40;;;15.40;;
23800;SDS011;12081;48.614;10.226;2022-10-19T04:32:29;18.23;;;14.50;;
23800;SDS011;12081;48.614;10.226;2022-10-19T04:35:13;18.87;;;14.30;;
23800;SDS011;12081;48.614;10.226;2022-10-19T04:37:57;18.90;;;15.10;;
23800;SDS011;12081;48.614;10.226;2022-10-19T04:40:42;19.33;;;14.80;;
23800;SDS011;12081;48.614;10.226;2022-10-19T04:43:26;19.57;;;14.90;;
23800;SDS011;12081;48.614;10.226;2022-10-19T04:46:11;18.90;;;15.23;;
23800;SDS011;12081;48.614;10.226;2022-10-19T04:48:58;17.80;;;14.80;;
23800;SDS011;12081;48.614;10.226;2022-10-19T04:51:43;22.07;;;15.67;;
23800;SDS011;12081;48.614;10.226;2022-10-19T04:54:27;19.23;;;14.37;;
23800;SDS011;12081;48.614;10.226;2022-10-19T04:57:11;18.13;;;14.53;;
23800;SDS011;12081;48.614;10.226;2022-10-19T04:59:56;21.30;;;15.63;;
23800;SDS011;12081;48.614;10.226;2022-10-19T05:02:44;18.50;;;15.00;;
23800;SDS011;12081;48.614;10.226;2022-10-19T05:05:30;20.00;;;15.37;;
23800;SDS011;12081;48.614;10.226;2022-10-19T05:10:51;22.53;;;15.50;;
23800;SDS011;12081;48.614;10.226;2022-10-19T05:13:38;20.23;;;14.90;;
23800;SDS011;12081;48.614;10.226;2022-10-19T05:16:24;19.27;;;14.93;;
23800;SDS011;12081;48.614;10.226;2022-10-19T05:19:11;20.37;;;16.43;;
23800;SDS011;12081;48.614;10.226;2022-10-19T05:21:57;21.87;;;15.60;;
23800;SDS011;12081;48.614;10.226;2022-10-19T05:24:41;23.03;;;16.90;;
23800;SDS011;12081;48.614;10.226;2022-10-19T05:27:25;23.57;;;16.53;;
23800;SDS011;12081;48.614;10.226;2022-10-19T05:30:10;27.50;;;17.23;;
23800;SDS011;12081;48.614;10.226;2022-10-19T05:32:57;22.10;;;16.60;;
23800;SDS011;12081;48.614;10.226;2022-10-19T05:35:41;24.67;;;17.20;;
23800;SDS011;12081;48.614;10.226;2022-10-19T05:38:25;22.00;;;16.57;;
23800;SDS011;12081;48.614;10.226;2022-10-19T05:41:09;23.80;;;16.80;;
23800;SDS011;12081;48.614;10.226;2022-10-19T05:43:55;22.83;;;16.73;;
23800;SDS011;12081;48.614;10.226;2022-10-19T05:46:41;22.43;;;17.23;;
23800;SDS011;12081;48.614;10.226;2022-10-19T05:49:26;22.67;;;17.07;;
23800;SDS011;12081;48.614;10.226;2022-10-19T05:52:11;20.80;;;16.03;;
23800;SDS011;12081;48.614;10.226;2022-10-19T05:54:56;25.07;;;16.47;;
23800;SDS011;12081;48.614;10.226;2022-10-19T05:57:40;22.43;;;16.57;;
23800;SDS011;12081;48.614;10.226;2022-10-19T06:00:25;20.13;;;15.43;;
23800;SDS011;12081;48.614;10.226;2022-10-19T06:03:09;18.30;;;15.47;;
23800;SDS011;12081;48.614;10.226;2022-10-19T06:05:53;17.97;;;14.67;;
23800;SDS011;12081;48.614;10.226;2022-10-19T06:08:38;17.93;;;15.10;;
23800;SDS011;12081;48.614;10.226;2022-10-19T06:11:27;19.57;;;14.90;;
23800;SDS011;12081;48.614;10.226;2022-10-19T06:14:14;21.27;;;16.80;;
23800;SDS011;12081;48.614;10.226;2022-10-19T06:16:58;18.20;;;15.50;;
23800;SDS011;12081;48.614;10.226;2022-10-19T06:19:43;20.07;;;16.17;;
23800;SDS011;12081;48.614;10.226;2022-10-19T06:22:27;17.13;;;14.53;;
23800;SDS011;12081;48.614;10.226;2022-10-19T06:25:11;20.90;;;15.67;;
23800;SDS011;12081;48.614;10.226;2022-10-19T06:27:55;18.03;;;14.77;;
23800;SDS011;12081;48.614;10.226;2022-10-19T06:30:39;18.73;;;14.23;;
23800;SDS011;12081;48.614;10.226;2022-10-19T06:33:25;18.80;;;14.67;;
23800;SDS011;12081;48.614;10.226;2022-10-19T06:36:13;18.60;;;14.87;;
23800;SDS011;12081;48.614;10.226;2022-10-19T06:39:03;16.90;;;14.33;;
23800;SDS011;12081;48.614;10.226;2022-10-19T06:41:47;17.97;;;14.97;;
23800;SDS011;12081;48.614;10.226;2022-10-19T06:44:31;18.97;;;14.73;;
23800;SDS011;12081;48.614;10.226;2022-10-19T06:47:15;20.07;;;15.57;;
23800;SDS011;12081;48.614;10.226;2022-10-19T06:49:59;19.20;;;14.37;;
23800;SDS011;12081;48.614;10.226;2022-10-19T06:52:43;16.20;;;13.50;;
23800;SDS011;12081;48.614;10.226;2022-10-19T06:55:28;17.93;;;14.97;;
23800;SDS011;12081;48.614;10.226;2022-10-19T06:58:12;16.37;;;14.10;;
23800;SDS011;12081;48.614;10.226;2022-10-19T07:00:57;18.70;;;13.87;;
23800;SDS011;12081;48.614;10.226;2022-10-19T07:03:42;17.33;;;14.13;;
23800;SDS011;12081;48.614;10.226;2022-10-19T07:06:26;17.80;;;14.33;;
23800;SDS011;12081;48.614;10.226;2022-10-19T07:09:11;19.17;;;15.33;;
23800;SDS011;12081;48.614;10.226;2022-10-19T07:11:56;17.17;;;13.87;;
23800;SDS011;12081;48.614;10.226;2022-10-19T07:14:40;16.20;;;13.37;;
23800;SDS011;12081;48.614;10.226;2022-10-19T07:17:24;18.00;;;13.57;;
23800;SDS011;12081;48.614;10.226;2022-10-19T07:20:08;17.83;;;14.23;;
23800;SDS011;12081;48.614;10.226;2022-10-19T07:22:53;16.03;;;13.43;;
23800;SDS011;12081;48.614;10.226;2022-10-19T07:25:37;16.17;;;13.27;;
23800;SDS011;12081;48.614;10.226;2022-10-19T07:28:21;14.80;;;12.97;;
23800;SDS011;12081;48.614;10.226;2022-10-19T07:31:09;16.70;;;13.50;;
23800;SDS011;12081;48.614;10.226;2022-10-19T07:33:56;17.80;;;14.77;;
23800;SDS011;12081;48.614;10.226;2022-10-19T07:36:43;19.80;;;14.07;;
23800;SDS011;12081;48.614;10.226;2022-10-19T07:39:30;20.13;;;13.87;;
23800;SDS011;12081;48.614;10.226;2022-10-19T07:42:14;17.33;;;13.97;;
23800;SDS011;12081;48.614;10.226;2022-10-19T07:44:58;15.77;;;13.03;;
23800;SDS011;12081;48.614;10.226;2022-10-19T07:47:43;18.70;;;12.73;;
23800;SDS011;12081;48.614;10.226;2022-10-19T07:50:27;16.40;;;12.73;;
23800;SDS011;12081;48.614;10.226;2022-10-19T07:53:11;17.30;;;12.87;;
23800;SDS011;12081;48.614;10.226;2022-10-19T07:55:55;18.70;;;12.77;;
23800;SDS011;12081;48.614;10.226;2022-10-19T07:58:49;17.20;;;12.03;;
23800;SDS011;12081;48.614;10.226;2022-10-19T08:01:37;18.50;;;11.47;;
23800;SDS011;12081;48.614;10.226;2022-10-19T08:04:26;18.83;;;12.00;;
23800;SDS011;12081;48.614;10.226;2022-10-19T08:07:11;15.10;;;12.70;;
23800;SDS011;12081;48.614;10.226;2022-10-19T08:09:54;15.50;;;11.63;;
23800;SDS011;12081;48.614;10.226;2022-10-19T08:12:38;13.47;;;11.67;;
23800;SDS011;12081;48.614;10.226;2022-10-19T08:15:23;12.83;;;11.47;;
23800;SDS011;12081;48.614;10.226;2022-10-19T08:18:08;14.17;;;11.80;;
23800;SDS011;12081;48.614;10.226;2022-10-19T08:20:54;16.00;;;11.63;;
23800;SDS011;12081;48.614;10.226;2022-10-19T08:23:38;13.53;;;11.13;;
23800;SDS011;12081;48.614;10.226;2022-10-19T08:26:24;13.83;;;11.60;;
23800;SDS011;12081;48.614;10.226;2022-10-19T08:29:11;13.27;;;11.40;;
23800;SDS011;12081;48.614;10.226;2022-10-19T08:31:57;15.47;;;11.27;;
23800;SDS011;12081;48.614;10.226;2022-10-19T08:34:42;12.00;;;10.70;;
23800;SDS011;12081;48.614;10.226;2022-10-19T08:37:27;11.47;;;10.03;;
23800;SDS011;12081;48.614;10.226;2022-10-19T08:40:16;11.70;;;10.50;;
23800;SDS011;12081;48.614;10.226;2022-10-19T08:43:18;12.57;;;10.10;;
23800;SDS011;12081;48.614;10.226;2022-10-19T08:49:07;10.67;;;9.50;;
23800;SDS011;12081;48.614;10.226;2022-10-19T08:51:56;11.80;;;9.37;;
23800;SDS011;12081;48.614;10.226;2022-10-19T09:09:08;10.00;;;8.63;;
23800;SDS011;12081;48.614;10.226;2022-10-19T09:11:57;8.93;;;8.03;;
23800;SDS011;12081;48.614;10.226;2022-10-19T09:14:55;9.33;;;7.93;;
23800;SDS011;12081;48.614;10.226;2022-10-19T09:17:43;10.17;;;8.00;;
23800;SDS011;12081;48.614;10.226;2022-10-19T09:20:31;8.73;;;7.53;;
23800;SDS011;12081;48.614;10.226;2022-10-19T09:26:35;8.93;;;7.67;;
23800;SDS011;12081;48.614;10.226;2022-10-19T09:29:37;8.87;;;7.97;;
23800;SDS011;12081;48.614;10.226;2022-10-19T09:32:34;8.43;;;7.53;;
23800;SDS011;12081;48.614;10.226;2022-10-19T09:35:31;8.87;;;6.83;;
23800;SDS011;12081;48.614;10.226;2022-10-19T09:38:16;8.67;;;6.53;;
23800;SDS011;12081;48.614;10.226;2022-10-19T09:41:19;8.10;;;7.30;;
23800;SDS011;12081;48.614;10.226;2022-10-19T09:44:05;7.63;;;6.67;;
23800;SDS011;12081;48.614;10.226;2022-10-19T09:49:46;7.70;;;6.53;;
23800;SDS011;12081;48.614;10.226;2022-10-19T09:52:35;12.20;;;6.93;;
23800;SDS011;12081;48.614;10.226;2022-10-19T09:55:25;11.13;;;6.63;;
23800;SDS011;12081;48.614;10.226;2022-10-19T10:00:57;6.77;;;6.00;;
23800;SDS011;12081;48.614;10.226;2022-10-19T10:03:41;8.23;;;6.93;;
23800;SDS011;12081;48.614;10.226;2022-10-19T10:06:26;6.27;;;5.67;;
23800;SDS011;12081;48.614;10.226;2022-10-19T10:09:21;6.20;;;5.60;;
23800;SDS011;12081;48.614;10.226;2022-10-19T10:12:09;6.90;;;6.20;;
23800;SDS011;12081;48.614;10.226;2022-10-19T10:14:56;6.40;;;5.77;;
23800;SDS011;12081;48.614;10.226;2022-10-19T10:17:40;5.93;;;5.27;;
23800;SDS011;12081;48.614;10.226;2022-10-19T10:20:29;6.60;;;5.40;;
23800;SDS011;12081;48.614;10.226;2022-10-19T10:23:21;5.63;;;4.00;;
23800;SDS011;12081;48.614;10.226;2022-10-19T10:26:18;4.30;;;3.90;;
23800;SDS011;12081;48.614;10.226;2022-10-19T10:29:02;4.93;;;4.10;;
23800;SDS011;12081;48.614;10.226;2022-10-19T10:32:04;5.20;;;4.67;;
23800;SDS011;12081;48.614;10.226;2022-10-19T10:34:55;5.43;;;4.73;;
23800;SDS011;12081;48.614;10.226;2022-10-19T10:38:34;6.17;;;5.57;;
23800;SDS011;12081;48.614;10.226;2022-10-19T10:41:16;6.43;;;5.70;;
23800;SDS011;12081;48.614;10.226;2022-10-19T10:44:06;6.40;;;5.20;;
23800;SDS011;12081;48.614;10.226;2022-10-19T10:47:00;6.37;;;5.37;;
23800;SDS011;12081;48.614;10.226;2022-10-19T10:49:53;6.40;;;5.80;;
23800;SDS011;12081;48.614;10.226;2022-10-19T10:53:32;8.13;;;5.47;;
23800;SDS011;12081;48.614;10.226;2022-10-19T10:56:22;7.23;;;6.00;;
23800;SDS011;12081;48.614;10.226;2022-10-19T10:59:15;7.17;;;6.10;;
23800;SDS011;12081;48.614;10.226;2022-10-19T11:02:51;6.50;;;5.73;;
23800;SDS011;12081;48.614;10.226;2022-10-19T11:10:59;4.97;;;4.43;;
23800;SDS011;12081;48.614;10.226;2022-10-19T11:17:26;7.03;;;5.13;;
23800;SDS011;12081;48.614;10.226;2022-10-19T11:20:13;5.90;;;5.00;;
23800;SDS011;12081;48.614;10.226;2022-10-19T11:23:04;6.73;;;5.40;;
23800;SDS011;12081;48.614;10.226;2022-10-19T11:26:18;6.40;;;4.80;;
23800;SDS011;12081;48.614;10.226;2022-10-19T11:29:20;6.07;;;4.40;;
23800;SDS011;12081;48.614;10.226;2022-10-19T11:35:57;4.70;;;4.17;;
23800;SDS011;12081;48.614;10.226;2022-10-19T11:42:14;5.47;;;4.20;;
23800;SDS011;12081;48.614;10.226;2022-10-19T11:51:08;5.20;;;4.30;;
23800;SDS011;12081;48.614;10.226;2022-10-19T11:57:18;5.37;;;4.83;;
23800;SDS011;12081;48.614;10.226;2022-10-19T12:00:09;6.90;;;4.70;;
23800;SDS011;12081;48.614;10.226;2022-10-19T12:21:13;10.63;;;6.73;;
23800;SDS011;12081;48.614;10.226;2022-10-19T12:24:30;7.10;;;6.37;;
23800;SDS011;12081;48.614;10.226;2022-10-19T12:27:26;11.90;;;6.70;;
23800;SDS011;12081;48.614;10.226;2022-10-19T12:30:22;8.30;;;7.50;;
23800;SDS011;12081;48.614;10.226;2022-10-19T12:36:12;8.17;;;7.37;;
23800;SDS011;12081;48.614;10.226;2022-10-19T12:39:12;7.27;;;5.87;;
23800;SDS011;12081;48.614;10.226;2022-10-19T12:42:30;7.53;;;6.23;;
23800;SDS011;12081;48.614;10.226;2022-10-19T12:50:59;5.67;;;5.17;;
23800;SDS011;12081;48.614;10.226;2022-10-19T12:53:46;5.87;;;5.37;;
23800;SDS011;12081;48.614;10.226;2022-10-19T12:56:31;8.07;;;4.80;;
23800;SDS011;12081;48.614;10.226;2022-10-19T12:59:32;5.27;;;4.80;;
23800;SDS011;12081;48.614;10.226;2022-10-19T13:02:23;6.20;;;5.60;;
23800;SDS011;12081;48.614;10.226;2022-10-19T13:05:18;6.53;;;5.83;;
23800;SDS011;12081;48.614;10.226;2022-10-19T13:08:07;6.13;;;5.63;;
23800;SDS011;12081;48.614;10.226;2022-10-19T13:11:07;6.70;;;6.00;;
23800;SDS011;12081;48.614;10.226;2022-10-19T13:14:01;6.73;;;6.03;;
23800;SDS011;12081;48.614;10.226;2022-10-19T13:16:54;6.67;;;5.93;;
23800;SDS011;12081;48.614;10.226;2022-10-19T13:19:43;5.77;;;5.30;;
23800;SDS011;12081;48.614;10.226;2022-10-19T13:22:27;5.90;;;5.20;;
23800;SDS011;12081;48.614;10.226;2022-10-19T13:36:17;5.50;;;5.00;;
23800;SDS011;12081;48.614;10.226;2022-10-19T13:39:03;4.63;;;4.23;;
23800;SDS011;12081;48.614;10.226;2022-10-19T13:41:50;4.60;;;4.20;;
23800;SDS011;12081;48.614;10.226;2022-10-19T13:44:36;4.57;;;4.17;;
23800;SDS011;12081;48.614;10.226;2022-10-19T13:47:30;5.20;;;4.40;;
23800;SDS011;12081;48.614;10.226;2022-10-19T13:53:06;5.87;;;4.07;;
23800;SDS011;12081;48.614;10.226;2022-10-19T13:56:28;4.47;;;3.90;;
23800;SDS011;12081;48.614;10.226;2022-10-19T14:11:46;5.10;;;4.70;;
23800;SDS011;12081;48.614;10.226;2022-10-19T14:14:41;7.00;;;4.70;;
23800;SDS011;12081;48.614;10.226;2022-10-19T14:17:28;7.07;;;4.33;;
23800;SDS011;12081;48.614;10.226;2022-10-19T14:26:04;6.17;;;3.97;;
23800;SDS011;12081;48.614;10.226;2022-10-19T14:28:53;4.87;;;4.43;;
23800;SDS011;12081;48.614;10.226;2022-10-19T14:31:39;5.27;;;3.97;;
23800;SDS011;12081;48.614;10.226;2022-10-19T14:34:24;4.33;;;3.93;;
23800;SDS011;12081;48.614;10.226;2022-10-19T14:37:18;4.63;;;3.63;;
23800;SDS011;12081;48.614;10.226;2022-10-19T14:40:06;6.07;;;3.63;;
23800;SDS011;12081;48.614;10.226;2022-10-19T14:48:59;4.43;;;4.03;;
23800;SDS011;12081;48.614;10.226;2022-10-19T14:51:49;6.77;;;4.27;;
23800;SDS011;12081;48.614;10.226;2022-10-19T14:54:44;4.83;;;3.83;;
23800;SDS011;12081;48.614;10.226;2022-10-19T14:57:31;6.10;;;3.70;;
23800;SDS011;12081;48.614;10.226;2022-10-19T15:00:28;5.87;;;3.87;;
23800;SDS011;12081;48.614;10.226;2022-10-19T15:03:19;4.90;;;3.50;;
23800;SDS011;12081;48.614;10.226;2022-10-19T15:06:06;7.47;;;3.90;;
23800;SDS011;12081;48.614;10.226;2022-10-19T15:09:04;6.93;;;4.33;;
23800;SDS011;12081;48.614;10.226;2022-10-19T15:11:49;6.90;;;3.70;;
23800;SDS011;12081;48.614;10.226;2022-10-19T15:14:35;4.00;;;3.70;;
23800;SDS011;12081;48.614;10.226;2022-10-19T15:20:19;10.20;;;3.80;;
23800;SDS011;12081;48.614;10.226;2022-10-19T15:23:29;8.00;;;3.80;;
23800;SDS011;12081;48.614;10.226;2022-10-19T15:29:09;3.83;;;3.20;;
23800;SDS011;12081;48.614;10.226;2022-10-19T15:32:12;4.33;;;3.67;;
23800;SDS011;12081;48.614;10.226;2022-10-19T15:35:08;4.53;;;4.03;;
23800;SDS011;12081;48.614;10.226;2022-10-19T15:41:14;4.80;;;4.00;;
23800;SDS011;12081;48.614;10.226;2022-10-19T15:44:02;5.70;;;3.93;;
23800;SDS011;12081;48.614;10.226;2022-10-19T15:52:25;6.23;;;4.37;;
23800;SDS011;12081;48.614;10.226;2022-10-19T15:55:16;4.50;;;3.60;;
23800;SDS011;12081;48.614;10.226;2022-10-19T15:58:00;4.27;;;3.83;;
23800;SDS011;12081;48.614;10.226;2022-10-19T16:00:46;5.07;;;3.47;;
23800;SDS011;12081;48.614;10.226;2022-10-19T16:03:30;9.83;;;4.90;;
23800;SDS011;12081;48.614;10.226;2022-10-19T16:06:14;5.10;;;4.53;;
23800;SDS011;12081;48.614;10.226;2022-10-19T16:09:00;5.23;;;4.73;;
23800;SDS011;12081;48.614;10.226;2022-10-19T16:11:44;4.97;;;4.50;;
23800;SDS011;12081;48.614;10.226;2022-10-19T16:14:29;6.23;;;4.47;;
23800;SDS011;12081;48.614;10.226;2022-10-19T16:17:13;5.90;;;4.20;;
23800;SDS011;12081;48.614;10.226;2022-10-19T16:19:58;5.77;;;4.30;;
23800;SDS011;12081;48.614;10.226;2022-10-19T16:22:42;4.60;;;3.70;;
23800;SDS011;12081;48.614;10.226;2022-10-19T16:25:28;7.93;;;3.83;;
23800;SDS011;12081;48.614;10.226;2022-10-19T16:28:11;4.57;;;4.17;;
23800;SDS011;12081;48.614;10.226;2022-10-19T16:30:56;4.80;;;4.30;;
23800;SDS011;12081;48.614;10.226;2022-10-19T16:33:40;6.50;;;4.77;;
23800;SDS011;12081;48.614;10.226;2022-10-19T16:36:25;8.83;;;4.57;;
23800;SDS011;12081;48.614;10.226;2022-10-19T16:39:08;4.90;;;4.47;;
23800;SDS011;12081;48.614;10.226;2022-10-19T16:41:53;6.90;;;5.10;;
23800;SDS011;12081;48.614;10.226;2022-10-19T16:44:37;6.97;;;4.93;;
23800;SDS011;12081;48.614;10.226;2022-10-19T16:47:21;5.57;;;4.40;;
23800;SDS011;12081;48.614;10.226;2022-10-19T16:50:05;7.70;;;4.57;;
23800;SDS011;12081;48.614;10.226;2022-10-19T16:55:30;4.80;;;4.30;;
23800;SDS011;12081;48.614;10.226;2022-10-19T16:58:14;5.50;;;4.60;;
23800;SDS011;12081;48.614;10.226;2022-10-19T17:01:04;7.33;;;5.20;;
23800;SDS011;12081;48.614;10.226;2022-10-19T17:06:29;4.10;;;3.53;;
23800;SDS011;12081;48.614;10.226;2022-10-19T17:09:15;4.40;;;3.50;;
23800;SDS011;12081;48.614;10.226;2022-10-19T17:11:59;9.03;;;3.87;;
23800;SDS011;12081;48.614;10.226;2022-10-19T17:14:43;5.57;;;3.80;;
23800;SDS011;12081;48.614;10.226;2022-10-19T17:17:27;4.47;;;3.53;;
23800;SDS011;12081;48.614;10.226;2022-10-19T17:20:12;3.60;;;3.30;;
23800;SDS011;12081;48.614;10.226;2022-10-19T17:22:58;3.87;;;3.50;;
23800;SDS011;12081;48.614;10.226;2022-10-19T17:25:46;4.60;;;4.00;;
23800;SDS011;12081;48.614;10.226;2022-10-19T17:28:31;4.50;;;4.03;;
23800;SDS011;12081;48.614;10.226;2022-10-19T17:31:16;6.60;;;3.63;;
23800;SDS011;12081;48.614;10.226;2022-10-19T17:34:00;4.47;;;4.03;;
23800;SDS011;12081;48.614;10.226;2022-10-19T17:36:45;4.90;;;3.90;;
23800;SDS011;12081;48.614;10.226;2022-10-19T17:39:30;7.13;;;4.87;;
23800;SDS011;12081;48.614;10.226;2022-10-19T17:42:14;7.03;;;5.03;;
23800;SDS011;12081;48.614;10.226;2022-10-19T17:44:58;6.43;;;4.90;;
23800;SDS011;12081;48.614;10.226;2022-10-19T17:47:42;6.60;;;5.83;;
23800;SDS011;12081;48.614;10.226;2022-10-19T17:50:27;6.50;;;5.90;;
23800;SDS011;12081;48.614;10.226;2022-10-19T17:53:11;7.47;;;6.43;;
23800;SDS011;12081;48.614;10.226;2022-10-19T17:55:57;7.87;;;6.13;;
23800;SDS011;12081;48.614;10.226;2022-10-19T17:58:43;8.27;;;6.87;;
23800;SDS011;12081;48.614;10.226;2022-10-19T18:01:27;8.33;;;6.37;;
23800;SDS011;12081;48.614;10.226;2022-10-19T18:04:13;7.77;;;6.40;;
23800;SDS011;12081;48.614;10.226;2022-10-19T18:06:57;8.77;;;6.53;;
23800;SDS011;12081;48.614;10.226;2022-10-19T18:09:41;8.40;;;6.63;;
23800;SDS011;12081;48.614;10.226;2022-10-19T18:12:26;8.83;;;6.80;;
23800;SDS011;12081;48.614;10.226;2022-10-19T18:15:10;10.67;;;7.40;;
23800;SDS011;12081;48.614;10.226;2022-10-19T18:17:54;10.70;;;7.93;;
23800;SDS011;12081;48.614;10.226;2022-10-19T18:20:38;9.73;;;8.33;;
23800;SDS011;12081;48.614;10.226;2022-10-19T18:23:22;8.67;;;7.83;;
23800;SDS011;12081;48.614;10.226;2022-10-19T18:26:07;11.27;;;7.80;;
23800;SDS011;12081;48.614;10.226;2022-10-19T18:28:55;9.93;;;7.43;;
23800;SDS011;12081;48.614;10.226;2022-10-19T18:31:40;8.83;;;7.87;;
23800;SDS011;12081;48.614;10.226;2022-10-19T18:34:25;9.73;;;8.27;;
23800;SDS011;12081;48.614;10.226;2022-10-19T18:37:09;13.47;;;8.80;;
23800;SDS011;12081;48.614;10.226;2022-10-19T18:39:53;12.10;;;8.17;;
23800;SDS011;12081;48.614;10.226;2022-10-19T18:42:38;9.63;;;8.53;;
23800;SDS011;12081;48.614;10.226;2022-10-19T18:45:22;11.00;;;9.00;;
23800;SDS011;12081;48.614;10.226;2022-10-19T18:48:06;14.93;;;9.13;;
23800;SDS011;12081;48.614;10.226;2022-10-19T18:50:50;10.93;;;8.40;;
23800;SDS011;12081;48.614;10.226;2022-10-19T18:53:34;9.63;;;8.33;;
23800;SDS011;12081;48.614;10.226;2022-10-19T18:56:19;10.07;;;8.23;;
23800;SDS011;12081;48.614;10.226;2022-10-19T18:59:04;9.20;;;8.10;;
23800;SDS011;12081;48.614;10.226;2022-10-19T19:01:49;10.87;;;8.07;;
23800;SDS011;12081;48.614;10.226;2022-10-19T19:04:34;10.50;;;8.53;;
23800;SDS011;12081;48.614;10.226;2022-10-19T19:07:19;13.30;;;8.67;;
23800;SDS011;12081;48.614;10.226;2022-10-19T19:10:04;12.50;;;8.73;;
23800;SDS011;12081;48.614;10.226;2022-10-19T19:12:49;16.73;;;9.30;;
23800;SDS011;12081;48.614;10.226;2022-10-19T19:15:33;13.23;;;10.13;;
23800;SDS011;12081;48.614;10.226;2022-10-19T19:18:17;13.80;;;9.40;;
23800;SDS011;12081;48.614;10.226;2022-10-19T19:21:01;19.57;;;9.63;;
23800;SDS011;12081;48.614;10.226;2022-10-19T19:23:47;13.87;;;9.47;;
23800;SDS011;12081;48.614;10.226;2022-10-19T19:26:35;12.87;;;9.43;;
23800;SDS011;12081;48.614;10.226;2022-10-19T19:29:21;15.13;;;10.97;;
23800;SDS011;12081;48.614;10.226;2022-10-19T19:32:06;13.53;;;11.17;;
23800;SDS011;12081;48.614;10.226;2022-10-19T19:34:50;13.97;;;10.90;;
23800;SDS011;12081;48.614;10.226;2022-10-19T19:37:35;17.17;;;12.63;;
23800;SDS011;12081;48.614;10.226;2022-10-19T19:40:19;20.20;;;14.63;;
23800;SDS011;12081;48.614;10.226;2022-10-19T19:43:03;21.17;;;14.17;;
23800;SDS011;12081;48.614;10.226;2022-10-19T19:45:57;15.83;;;12.53;;
23800;SDS011;12081;48.614;10.226;2022-10-19T19:48:44;12.97;;;10.97;;
23800;SDS011;12081;48.614;10.226;2022-10-19T19:51:29;12.83;;;10.13;;
23800;SDS011;12081;48.614;10.226;2022-10-19T19:54:15;11.37;;;9.67;;
23800;SDS011;12081;48.614;10.226;2022-10-19T19:56:59;13.83;;;9.83;;
23800;SDS011;12081;48.614;10.226;2022-10-19T19:59:43;14.53;;;10.10;;
23800;SDS011;12081;48.614;10.226;2022-10-19T20:02:27;11.20;;;9.20;;
23800;SDS011;12081;48.614;10.226;2022-10-19T20:05:11;13.53;;;10.00;;
23800;SDS011;12081;48.614;10.226;2022-10-19T20:07:55;12.40;;;9.20;;
23800;SDS011;12081;48.614;10.226;2022-10-19T20:10:40;14.17;;;9.30;;
23800;SDS011;12081;48.614;10.226;2022-10-19T20:13:25;11.57;;;9.47;;
23800;SDS011;12081;48.614;10.226;2022-10-19T20:16:10;12.47;;;9.97;;
23800;SDS011;12081;48.614;10.226;2022-10-19T20:19:02;14.13;;;9.60;;
23800;SDS011;12081;48.614;10.226;2022-10-19T20:21:52;13.47;;;9.63;;
23800;SDS011;12081;48.614;10.226;2022-10-19T20:24:36;14.10;;;9.73;;
23800;SDS011;12081;48.614;10.226;2022-10-19T20:27:20;14.90;;;10.37;;
23800;SDS011;12081;48.614;10.226;2022-10-19T20:30:04;17.27;;;10.47;;
23800;SDS011;12081;48.614;10.226;2022-10-19T20:32:51;14.00;;;10.77;;
23800;SDS011;12081;48.614;10.226;2022-10-19T20:35:36;14.77;;;10.43;;
23800;SDS011;12081;48.614;10.226;2022-10-19T20:38:20;15.60;;;10.53;;
23800;SDS011;12081;48.614;10.226;2022-10-19T20:41:05;13.90;;;10.07;;
23800;SDS011;12081;48.614;10.226;2022-10-19T20:43:51;16.50;;;10.53;;
23800;SDS011;12081;48.614;10.226;2022-10-19T20:46:36;15.20;;;11.73;;
23800;SDS011;12081;48.614;10.226;2022-10-19T20:49:21;14.23;;;11.17;;
23800;SDS011;12081;48.614;10.226;2022-10-19T20:52:05;15.43;;;10.23;;
23800;SDS011;12081;48.614;10.226;2022-10-19T20:54:49;14.27;;;11.07;;
23800;SDS011;12081;48.614;10.226;2022-10-19T20:57:33;14.73;;;11.43;;
23800;SDS011;12081;48.614;10.226;2022-10-19T21:00:17;15.13;;;11.47;;
23800;SDS011;12081;48.614;10.226;2022-10-19T21:03:01;18.03;;;12.40;;
23800;SDS011;12081;48.614;10.226;2022-10-19T21:05:45;18.57;;;13.00;;
23800;SDS011;12081;48.614;10.226;2022-10-19T21:08:29;17.63;;;12.37;;
23800;SDS011;12081;48.614;10.226;2022-10-19T21:11:14;20.77;;;14.97;;
23800;SDS011;12081;48.614;10.226;2022-10-19T21:14:01;18.03;;;12.67;;
23800;SDS011;12081;48.614;10.226;2022-10-19T21:16:48;17.53;;;13.60;;
23800;SDS011;12081;48.614;10.226;2022-10-19T21:19:32;18.87;;;13.17;;
23800;SDS011;12081;48.614;10.226;2022-10-19T21:22:16;18.67;;;14.37;;
23800;SDS011;12081;48.614;10.226;2022-10-19T21:25:00;17.97;;;14.70;;
23800;SDS011;12081;48.614;10.226;2022-10-19T21:27:45;21.73;;;16.33;;
23800;SDS011;12081;48.614;10.226;2022-10-19T21:30:29;20.53;;;14.50;;
23800;SDS011;12081;48.614;10.226;2022-10-19T21:33:13;19.70;;;13.70;;
23800;SDS011;12081;48.614;10.226;2022-10-19T21:36:02;20.37;;;14.07;;
23800;SDS011;12081;48.614;10.226;2022-10-19T21:38:47;20.07;;;13.93;;
23800;SDS011;12081;48.614;10.226;2022-10-19T21:41:31;20.53;;;13.83;;
23800;SDS011;12081;48.614;10.226;2022-10-19T21:44:16;21.80;;;15.17;;
23800;SDS011;12081;48.614;10.226;2022-10-19T21:47:00;18.87;;;14.73;;